createdAt,value
2023-05-17T00:03:35.243Z,100739.16
2023-05-17T00:08:38.095Z,100747.44
2023-05-17T00:13:41.192Z,100736.78
2023-05-17T00:18:45.802Z,100746.91
2023-05-17T00:23:48.751Z,100749.72
2023-05-17T00:28:51.580Z,100749.94
2023-05-17T00:33:55.785Z,100748.31
2023-05-17T00:38:58.673Z,100759.28
2023-05-17T00:44:01.524Z,100767.44
2023-05-17T00:49:05.765Z,100752.44
2023-05-17T00:54:08.584Z,100751.66
2023-05-17T00:59:11.483Z,100757.25
2023-05-17T01:04:15.955Z,100763.72
2023-05-17T01:09:18.953Z,100755.97
2023-05-17T01:14:29.105Z,100768.66
2023-05-17T01:19:54.482Z,100765.38
2023-05-17T01:25:05.222Z,100770.84
2023-05-17T01:30:11.212Z,100775.44
2023-05-17T01:35:14.065Z,100779.22
2023-05-17T01:40:16.894Z,100781.16
2023-05-17T01:45:23.218Z,100788.47
2023-05-17T01:50:30.144Z,100784.94
2023-05-17T01:55:35.680Z,100790.50
2023-05-17T02:00:40.088Z,100792.56
2023-05-17T02:05:42.914Z,100792.56
2023-05-17T02:10:45.783Z,100801.69
2023-05-17T02:15:50.053Z,100801.03
2023-05-17T02:20:52.916Z,100795.75
2023-05-17T02:25:55.868Z,100789.53
2023-05-17T02:31:00.068Z,100789.00
2023-05-17T02:36:02.950Z,100784.41
2023-05-17T02:41:05.928Z,100789.97
2023-05-17T02:46:10.173Z,100792.66
2023-05-17T02:51:13.209Z,100803.50
2023-05-17T02:56:16.044Z,100800.06
2023-05-17T03:01:20.537Z,100808.22
2023-05-17T03:06:23.450Z,100808.34
2023-05-17T03:11:27.973Z,100810.25
2023-05-17T03:16:34.589Z,100815.84
2023-05-17T03:21:37.863Z,100815.84
2023-05-17T03:26:41.236Z,100819.38
2023-05-17T03:31:47.566Z,100824.97
2023-05-17T03:36:51.178Z,100843.63
2023-05-17T03:41:54.095Z,100848.25
2023-05-17T03:46:59.585Z,100854.59
2023-05-17T03:52:03.547Z,100859.19
2023-05-17T03:57:07.075Z,100857.47
2023-05-17T04:02:12.572Z,100863.69
2023-05-17T04:07:15.732Z,100859.28
2023-05-17T04:12:18.651Z,100859.41
2023-05-17T04:17:22.952Z,100870.88
2023-05-17T04:22:26.749Z,100874.41
2023-05-17T04:27:29.591Z,100886.91
2023-05-17T04:32:34.104Z,100888.63
2023-05-17T04:37:39.788Z,100891.31
2023-05-17T04:42:52.713Z,100889.59
2023-05-17T04:47:57.751Z,100888.69
2023-05-17T04:53:00.926Z,100906.53
2023-05-17T04:58:06.838Z,100902.03
2023-05-17T05:03:12.494Z,100905.56
2023-05-17T05:08:16.040Z,100909.00
2023-05-17T05:13:21.025Z,100907.19
2023-05-17T05:18:25.311Z,100904.50
2023-05-17T05:23:28.349Z,100920.59
2023-05-17T05:28:31.648Z,100931.22
2023-05-17T05:33:36.931Z,100940.00
2023-05-17T05:38:40.220Z,100942.59
2023-05-17T05:43:43.388Z,100942.59
2023-05-17T05:48:48.394Z,100954.22
2023-05-17T05:53:51.462Z,100953.03
2023-05-17T05:58:55.906Z,100947.66
2023-05-17T06:04:01.114Z,100963.53
2023-05-17T06:09:07.107Z,100955.31
2023-05-17T06:14:09.979Z,100959.81
2023-05-17T06:19:14.349Z,100966.91
2023-05-17T06:24:17.935Z,100958.75
2023-05-17T06:29:20.876Z,100951.56
2023-05-17T06:34:25.167Z,100962.41
2023-05-17T06:39:28.580Z,100969.78
2023-05-17T06:44:31.553Z,100971.59
2023-05-17T06:49:36.017Z,100976.00
2023-05-17T06:54:38.950Z,100988.47
2023-05-17T06:59:41.890Z,100991.91
2023-05-17T07:04:46.241Z,100983.75
2023-05-17T07:09:49.505Z,100995.25
2023-05-17T07:14:52.323Z,101008.63
2023-05-17T07:19:56.733Z,101027.81
2023-05-17T07:24:59.658Z,101029.00
2023-05-17T07:30:03.432Z,101030.00
2023-05-17T07:35:08.314Z,101029.78
2023-05-17T07:40:12.397Z,101028.97
2023-05-17T07:45:15.559Z,101032.25
2023-05-17T07:50:19.892Z,101030.06
2023-05-17T07:55:23.259Z,101024.84
2023-05-17T08:00:27.879Z,101040.19
2023-05-17T08:05:32.247Z,101032.59
2023-05-17T08:10:37.189Z,101033.34
2023-05-17T08:15:40.478Z,101029.63
2023-05-17T08:20:45.532Z,101028.38
2023-05-17T08:25:48.466Z,101032.91
2023-05-17T08:30:52.136Z,101032.00
2023-05-17T08:35:57.816Z,101033.31
2023-05-17T08:41:02.108Z,101050.50
2023-05-17T08:46:05.163Z,101052.59
2023-05-17T08:51:09.835Z,101062.06
2023-05-17T08:56:12.962Z,101052.03
2023-05-17T09:01:16.792Z,101057.31
2023-05-17T09:06:23.014Z,101057.78
2023-05-17T09:11:27.747Z,101053.03
2023-05-17T09:16:31.108Z,101048.25
2023-05-17T09:21:36.027Z,101032.25
2023-05-17T09:26:39.502Z,101043.84
2023-05-17T09:31:47.836Z,101049.19
2023-05-17T09:36:58.322Z,101054.19
2023-05-17T09:42:01.213Z,101051.84
2023-05-17T09:47:04.080Z,101058.56
2023-05-17T09:52:09.426Z,101052.91
2023-05-17T09:57:12.299Z,101048.69
2023-05-17T10:02:22.140Z,101058.22
2023-05-17T10:07:27.812Z,101056.22
2023-05-17T10:12:30.770Z,101057.84
2023-05-17T10:17:35.738Z,101058.97
2023-05-17T10:22:39.964Z,101070.84
2023-05-17T10:27:43.048Z,101075.94
2023-05-17T10:32:46.605Z,101070.84
2023-05-17T10:37:51.158Z,101080.53
2023-05-17T10:42:55.074Z,101090.63
2023-05-17T10:47:59.723Z,101094.53
2023-05-17T10:53:06.710Z,101102.06
2023-05-17T10:58:19.922Z,101092.94
2023-05-17T11:03:24.322Z,101102.72
2023-05-17T11:08:28.550Z,101098.75
2023-05-17T11:13:31.561Z,101089.94
2023-05-17T11:18:50.863Z,101085.59
2023-05-17T11:23:57.293Z,101079.06
2023-05-17T11:29:02.480Z,101096.75
2023-05-17T11:34:05.546Z,101076.56
2023-05-17T11:39:13.379Z,101078.91
2023-05-17T11:44:16.673Z,101069.19
2023-05-17T11:49:34.387Z,101067.84
2023-05-17T11:54:40.378Z,101084.13
2023-05-17T11:59:44.041Z,101074.06
2023-05-17T12:04:47.045Z,101077.22
2023-05-17T12:09:51.372Z,101059.78
2023-05-17T12:14:54.527Z,101074.88
2023-05-17T12:19:57.544Z,101055.41
2023-05-17T12:25:01.915Z,101060.00
2023-05-17T12:30:15.772Z,101069.78
2023-05-17T12:35:18.678Z,101072.00
2023-05-17T12:40:22.931Z,101048.72
2023-05-17T12:45:25.772Z,101051.31
2023-05-17T12:50:30.415Z,101048.34
2023-05-17T12:55:37.782Z,101048.28
2023-05-17T13:00:40.885Z,101056.72
2023-05-17T13:05:44.268Z,101055.59
2023-05-17T13:10:48.463Z,101053.38
2023-05-17T13:15:51.319Z,101048.75
2023-05-17T13:20:54.292Z,101060.56
2023-05-17T13:25:58.516Z,101057.34
2023-05-17T13:31:01.428Z,101053.38
2023-05-17T13:36:04.539Z,101054.22
2023-05-17T13:41:09.339Z,101059.00
2023-05-17T13:46:12.166Z,101063.09
2023-05-17T13:51:15.196Z,101061.78
2023-05-17T13:56:19.542Z,101067.34
2023-05-17T14:01:31.414Z,101066.09
2023-05-17T14:06:39.607Z,101055.53
2023-05-17T14:11:50.565Z,101064.03
2023-05-17T14:16:57.782Z,101060.69
2023-05-17T14:22:06.525Z,101055.06
2023-05-17T14:27:13.949Z,101050.19
2023-05-17T14:32:16.800Z,101058.31
2023-05-17T14:37:21.176Z,101050.53
2023-05-17T14:42:25.918Z,101075.41
2023-05-17T14:47:29.091Z,101080.50
2023-05-17T14:52:31.928Z,101082.59
2023-05-17T14:57:36.997Z,101078.69
2023-05-17T15:02:40.176Z,101089.38
2023-05-17T15:07:43.357Z,101069.69
2023-05-17T15:12:47.674Z,101078.66
2023-05-17T15:17:50.583Z,101082.69
2023-05-17T15:22:53.576Z,101089.13
2023-05-17T15:27:58.036Z,101076.50
2023-05-17T15:33:01.386Z,101073.66
2023-05-17T15:38:06.093Z,101074.97
2023-05-17T15:43:10.462Z,101075.94
2023-05-17T15:48:13.602Z,101071.84
2023-05-17T15:53:16.627Z,101067.69
2023-05-17T15:58:21.331Z,101062.44
2023-05-17T16:03:24.631Z,101042.56
2023-05-17T16:08:27.742Z,101051.34
2023-05-17T16:13:33.290Z,101058.16
2023-05-17T16:18:36.274Z,101055.94
2023-05-17T16:23:39.301Z,101058.88
2023-05-17T16:28:43.618Z,101057.09
2023-05-17T16:33:46.581Z,101062.72
2023-05-17T16:38:49.531Z,101064.56
2023-05-17T16:43:53.747Z,101072.22
2023-05-17T16:48:56.556Z,101072.22
2023-05-17T16:53:59.403Z,101065.16
2023-05-17T16:59:03.636Z,101072.34
2023-05-17T17:04:06.874Z,101073.50
2023-05-17T17:09:11.659Z,101081.22
2023-05-17T17:14:16.206Z,101078.31
2023-05-17T17:19:19.264Z,101074.78
2023-05-17T17:24:22.113Z,101079.59
2023-05-17T17:29:26.448Z,101080.19
2023-05-17T17:34:29.618Z,101074.09
2023-05-17T17:39:32.652Z,101080.56
2023-05-17T17:44:36.924Z,101087.38
2023-05-17T17:49:39.857Z,101105.22
2023-05-17T17:54:44.071Z,101102.09
2023-05-17T17:59:50.136Z,101102.03
2023-05-17T18:04:53.100Z,101114.06
2023-05-17T18:09:56.932Z,101119.91
2023-05-17T18:15:01.882Z,101124.78
2023-05-17T18:20:06.801Z,101132.13
2023-05-17T18:25:10.345Z,101130.16
2023-05-17T18:30:15.453Z,101126.63
2023-05-17T18:35:18.397Z,101140.81
2023-05-17T18:40:21.556Z,101147.91
2023-05-17T18:45:25.857Z,101153.53
2023-05-17T18:50:29.086Z,101158.06
2023-05-17T18:55:32.250Z,101167.88
2023-05-17T19:00:36.524Z,101179.59
2023-05-17T19:05:39.496Z,101177.78
2023-05-17T19:10:42.314Z,101178.63
2023-05-17T19:15:46.549Z,101191.78
2023-05-17T19:20:49.482Z,101189.53
2023-05-17T19:25:53.442Z,101201.38
2023-05-17T19:30:57.785Z,101200.75
2023-05-17T19:36:00.786Z,101208.81
2023-05-17T19:41:03.793Z,101217.88
2023-05-17T19:46:10.768Z,101212.25
2023-05-17T19:51:13.683Z,101231.00
2023-05-17T19:56:16.591Z,101229.28
2023-05-17T20:01:21.584Z,101228.28
2023-05-17T20:06:26.647Z,101241.63
2023-05-17T20:11:34.006Z,101239.94
2023-05-17T20:16:40.184Z,101242.63
2023-05-17T20:21:43.153Z,101253.38
2023-05-17T20:26:46.818Z,101253.28
2023-05-17T20:31:54.325Z,101254.25
2023-05-17T20:36:58.275Z,101254.13
2023-05-17T20:42:02.294Z,101257.69
2023-05-17T20:47:07.566Z,101256.72
2023-05-17T20:52:10.516Z,101262.09
2023-05-17T20:57:13.391Z,101259.41
2023-05-17T21:02:17.796Z,101265.75
2023-05-17T21:07:20.908Z,101263.91
2023-05-17T21:12:24.024Z,101255.22
2023-05-17T21:17:28.724Z,101269.41
2023-05-17T21:22:31.773Z,101265.00
2023-05-17T21:27:35.392Z,101268.56
2023-05-17T21:32:39.692Z,101266.84
2023-05-17T21:37:42.604Z,101267.81
2023-05-17T21:42:45.696Z,101273.19
2023-05-17T21:47:49.975Z,101272.44
2023-05-17T21:52:53.268Z,101277.50
2023-05-17T21:57:56.295Z,101279.56
2023-05-17T22:03:00.841Z,101279.44
2023-05-17T22:08:03.923Z,101278.69
2023-05-17T22:13:08.034Z,101278.03
2023-05-17T22:18:13.840Z,101280.94
2023-05-17T22:23:16.849Z,101275.34
2023-05-17T22:28:19.679Z,101290.97
2023-05-17T22:33:23.944Z,101298.38
2023-05-17T22:38:26.850Z,101289.78
2023-05-17T22:43:30.082Z,101301.50
2023-05-17T22:48:37.263Z,101301.81
2023-05-17T22:53:40.441Z,101304.72
2023-05-17T22:58:43.460Z,101307.69
2023-05-17T23:03:47.753Z,101303.59
2023-05-17T23:08:52.569Z,101309.16
2023-05-17T23:13:55.693Z,101304.97
2023-05-17T23:19:00.133Z,101303.38
2023-05-17T23:24:03.107Z,101300.88
2023-05-17T23:29:05.954Z,101298.50
2023-05-17T23:34:10.181Z,101309.44
2023-05-17T23:39:12.999Z,101301.69
2023-05-17T23:44:17.850Z,101306.44
2023-05-17T23:49:23.030Z,101308.56
2023-05-17T23:54:25.898Z,101307.91
2023-05-17T23:59:29.468Z,101314.44
